sensor_id;sensor_type;location;lat;lon;timestamp;temperature;humidity
22436;DHT22;11385;50.822;4.324;2022-08-04T00:00:33;27.30;99.90
22436;DHT22;11385;50.822;4.324;2022-08-04T00:05:46;27.30;99.90
22436;DHT22;11385;50.822;4.324;2022-08-04T00:08:18;27.20;99.90
22436;DHT22;11385;50.822;4.324;2022-08-04T00:10:48;27.10;99.90
22436;DHT22;11385;50.822;4.324;2022-08-04T00:13:16;26.80;99.90
22436;DHT22;11385;50.822;4.324;2022-08-04T00:15:45;26.80;99.90
22436;DHT22;11385;50.822;4.324;2022-08-04T00:18:14;26.80;99.90
22436;DHT22;11385;50.822;4.324;2022-08-04T00:20:42;26.80;99.90
22436;DHT22;11385;50.822;4.324;2022-08-04T00:23:09;26.80;99.90
22436;DHT22;11385;50.822;4.324;2022-08-04T00:25:39;27.00;99.90
22436;DHT22;11385;50.822;4.324;2022-08-04T00:28:06;27.00;99.90
22436;DHT22;11385;50.822;4.324;2022-08-04T00:30:33;27.00;99.90
22436;DHT22;11385;50.822;4.324;2022-08-04T00:33:00;27.10;99.90
22436;DHT22;11385;50.822;4.324;2022-08-04T00:35:28;26.90;99.90
22436;DHT22;11385;50.822;4.324;2022-08-04T00:37:55;26.90;99.90
22436;DHT22;11385;50.822;4.324;2022-08-04T00:40:31;26.90;99.90
22436;DHT22;11385;50.822;4.324;2022-08-04T00:45:50;26.70;99.90
22436;DHT22;11385;50.822;4.324;2022-08-04T00:48:19;26.60;99.90
22436;DHT22;11385;50.822;4.324;2022-08-04T00:50:51;26.50;99.90
22436;DHT22;11385;50.822;4.324;2022-08-04T00:53:37;26.40;99.90
22436;DHT22;11385;50.822;4.324;2022-08-04T00:56:01;26.30;99.90
22436;DHT22;11385;50.822;4.324;2022-08-04T00:58:38;26.30;99.90
22436;DHT22;11385;50.822;4.324;2022-08-04T01:01:05;26.10;99.90
22436;DHT22;11385;50.822;4.324;2022-08-04T01:03:41;26.00;99.90
22436;DHT22;11385;50.822;4.324;2022-08-04T01:06:16;25.90;99.90
22436;DHT22;11385;50.822;4.324;2022-08-04T01:09:06;25.80;99.90
22436;DHT22;11385;50.822;4.324;2022-08-04T01:11:48;25.80;99.90
22436;DHT22;11385;50.822;4.324;2022-08-04T01:14:20;25.50;99.90
22436;DHT22;11385;50.822;4.324;2022-08-04T01:16:48;25.40;99.90
22436;DHT22;11385;50.822;4.324;2022-08-04T01:19:40;25.50;99.90
22436;DHT22;11385;50.822;4.324;2022-08-04T01:22:17;25.50;99.90
22436;DHT22;11385;50.822;4.324;2022-08-04T01:24:54;25.30;99.90
22436;DHT22;11385;50.822;4.324;2022-08-04T01:27:31;25.10;99.90
22436;DHT22;11385;50.822;4.324;2022-08-04T01:29:55;25.20;99.90
22436;DHT22;11385;50.822;4.324;2022-08-04T01:32:33;25.30;99.90
22436;DHT22;11385;50.822;4.324;2022-08-04T01:35:04;25.20;99.90
22436;DHT22;11385;50.822;4.324;2022-08-04T01:38:00;25.40;99.90
22436;DHT22;11385;50.822;4.324;2022-08-04T01:40:28;25.20;99.90
22436;DHT22;11385;50.822;4.324;2022-08-04T01:42:57;24.70;99.90
22436;DHT22;11385;50.822;4.324;2022-08-04T01:45:24;24.50;99.90
22436;DHT22;11385;50.822;4.324;2022-08-04T01:47:53;24.50;99.90
22436;DHT22;11385;50.822;4.324;2022-08-04T01:50:21;24.70;99.90
22436;DHT22;11385;50.822;4.324;2022-08-04T01:52:51;24.90;99.90
22436;DHT22;11385;50.822;4.324;2022-08-04T01:55:18;25.00;99.90
22436;DHT22;11385;50.822;4.324;2022-08-04T01:57:49;25.00;99.90
22436;DHT22;11385;50.822;4.324;2022-08-04T02:00:20;25.00;99.90
22436;DHT22;11385;50.822;4.324;2022-08-04T02:02:48;25.10;99.90
22436;DHT22;11385;50.822;4.324;2022-08-04T02:05:18;25.20;99.90
22436;DHT22;11385;50.822;4.324;2022-08-04T02:09:02;25.20;99.90
22436;DHT22;11385;50.822;4.324;2022-08-04T02:11:03;25.20;99.90
22436;DHT22;11385;50.822;4.324;2022-08-04T02:13:38;25.20;99.90
22436;DHT22;11385;50.822;4.324;2022-08-04T02:16:13;25.10;99.90
22436;DHT22;11385;50.822;4.324;2022-08-04T02:19:31;25.20;99.90
22436;DHT22;11385;50.822;4.324;2022-08-04T02:21:45;25.20;99.90
22436;DHT22;11385;50.822;4.324;2022-08-04T02:24:15;25.00;99.90
22436;DHT22;11385;50.822;4.324;2022-08-04T02:26:45;24.90;99.90
22436;DHT22;11385;50.822;4.324;2022-08-04T02:29:22;24.90;99.90
22436;DHT22;11385;50.822;4.324;2022-08-04T02:32:03;24.90;99.90
22436;DHT22;11385;50.822;4.324;2022-08-04T02:34:40;25.00;99.90
22436;DHT22;11385;50.822;4.324;2022-08-04T02:37:08;24.90;99.90
22436;DHT22;11385;50.822;4.324;2022-08-04T02:39:36;25.00;99.90
22436;DHT22;11385;50.822;4.324;2022-08-04T02:42:04;24.90;99.90
22436;DHT22;11385;50.822;4.324;2022-08-04T02:44:31;25.00;99.90
22436;DHT22;11385;50.822;4.324;2022-08-04T02:46:59;24.90;99.90
22436;DHT22;11385;50.822;4.324;2022-08-04T02:49:28;24.80;99.90
22436;DHT22;11385;50.822;4.324;2022-08-04T02:51:56;24.80;99.90
22436;DHT22;11385;50.822;4.324;2022-08-04T02:54:27;24.70;99.90
22436;DHT22;11385;50.822;4.324;2022-08-04T02:56:55;24.70;99.90
22436;DHT22;11385;50.822;4.324;2022-08-04T02:59:25;24.70;99.90
22436;DHT22;11385;50.822;4.324;2022-08-04T03:01:55;24.50;99.90
22436;DHT22;11385;50.822;4.324;2022-08-04T03:07:34;24.40;99.90
22436;DHT22;11385;50.822;4.324;2022-08-04T03:10:09;24.30;99.90
22436;DHT22;11385;50.822;4.324;2022-08-04T03:15:28;24.10;99.90
22436;DHT22;11385;50.822;4.324;2022-08-04T03:18:00;24.10;99.90
22436;DHT22;11385;50.822;4.324;2022-08-04T03:21:10;24.20;99.90
22436;DHT22;11385;50.822;4.324;2022-08-04T03:26:25;24.00;99.90
22436;DHT22;11385;50.822;4.324;2022-08-04T03:32:00;24.10;99.90
22436;DHT22;11385;50.822;4.324;2022-08-04T03:34:35;24.20;99.90
22436;DHT22;11385;50.822;4.324;2022-08-04T03:37:28;24.20;99.90
22436;DHT22;11385;50.822;4.324;2022-08-04T03:48:12;24.20;99.90
22436;DHT22;11385;50.822;4.324;2022-08-04T03:50:41;24.20;99.90
22436;DHT22;11385;50.822;4.324;2022-08-04T03:53:34;24.20;99.90
22436;DHT22;11385;50.822;4.324;2022-08-04T03:56:14;24.20;99.90
22436;DHT22;11385;50.822;4.324;2022-08-04T03:58:52;24.10;99.90
22436;DHT22;11385;50.822;4.324;2022-08-04T04:04:27;24.10;99.90
22436;DHT22;11385;50.822;4.324;2022-08-04T04:12:34;24.00;99.90
22436;DHT22;11385;50.822;4.324;2022-08-04T04:15:07;23.90;99.90
22436;DHT22;11385;50.822;4.324;2022-08-04T04:18:05;23.70;99.90
22436;DHT22;11385;50.822;4.324;2022-08-04T04:20:52;23.80;99.90
22436;DHT22;11385;50.822;4.324;2022-08-04T04:23:29;23.70;99.90
22436;DHT22;11385;50.822;4.324;2022-08-04T04:26:23;23.60;99.90
22436;DHT22;11385;50.822;4.324;2022-08-04T04:28:59;23.50;99.90
22436;DHT22;11385;50.822;4.324;2022-08-04T04:31:52;23.70;99.90
22436;DHT22;11385;50.822;4.324;2022-08-04T04:34:30;23.50;99.90
22436;DHT22;11385;50.822;4.324;2022-08-04T04:37:07;23.30;99.90
22436;DHT22;11385;50.822;4.324;2022-08-04T04:39:54;23.10;99.90
22436;DHT22;11385;50.822;4.324;2022-08-04T04:45:02;23.00;99.90
22436;DHT22;11385;50.822;4.324;2022-08-04T04:47:39;23.10;99.90
22436;DHT22;11385;50.822;4.324;2022-08-04T04:50:13;23.00;99.90
22436;DHT22;11385;50.822;4.324;2022-08-04T04:55:29;23.10;99.90
22436;DHT22;11385;50.822;4.324;2022-08-04T04:57:58;23.00;99.90
22436;DHT22;11385;50.822;4.324;2022-08-04T05:00:35;23.10;99.90
22436;DHT22;11385;50.822;4.324;2022-08-04T05:06:20;22.90;99.90
22436;DHT22;11385;50.822;4.324;2022-08-04T05:09:02;22.80;99.90
22436;DHT22;11385;50.822;4.324;2022-08-04T05:14:40;23.00;99.90
22436;DHT22;11385;50.822;4.324;2022-08-04T05:19:50;22.90;99.90
22436;DHT22;11385;50.822;4.324;2022-08-04T05:22:21;23.00;99.90
22436;DHT22;11385;50.822;4.324;2022-08-04T05:24:52;23.00;99.90
22436;DHT22;11385;50.822;4.324;2022-08-04T05:27:23;23.10;99.90
22436;DHT22;11385;50.822;4.324;2022-08-04T05:29:52;23.30;99.90
22436;DHT22;11385;50.822;4.324;2022-08-04T05:32:23;23.50;99.90
22436;DHT22;11385;50.822;4.324;2022-08-04T05:34:57;23.60;99.90
22436;DHT22;11385;50.822;4.324;2022-08-04T05:37:24;23.60;99.90
22436;DHT22;11385;50.822;4.324;2022-08-04T05:39:56;23.60;99.90
22436;DHT22;11385;50.822;4.324;2022-08-04T05:42:24;23.70;99.90
22436;DHT22;11385;50.822;4.324;2022-08-04T05:44:52;23.60;99.90
22436;DHT22;11385;50.822;4.324;2022-08-04T05:47:19;23.60;99.90
22436;DHT22;11385;50.822;4.324;2022-08-04T05:49:47;23.50;99.90
22436;DHT22;11385;50.822;4.324;2022-08-04T05:52:14;23.40;99.90
22436;DHT22;11385;50.822;4.324;2022-08-04T05:54:42;23.20;99.90
22436;DHT22;11385;50.822;4.324;2022-08-04T05:57:10;23.10;99.90
22436;DHT22;11385;50.822;4.324;2022-08-04T05:59:39;23.10;99.90
22436;DHT22;11385;50.822;4.324;2022-08-04T06:02:09;23.20;99.90
22436;DHT22;11385;50.822;4.324;2022-08-04T06:04:38;23.40;99.90
22436;DHT22;11385;50.822;4.324;2022-08-04T06:07:07;23.70;99.90
22436;DHT22;11385;50.822;4.324;2022-08-04T06:09:36;23.50;99.90
22436;DHT22;11385;50.822;4.324;2022-08-04T06:12:07;23.30;99.90
22436;DHT22;11385;50.822;4.324;2022-08-04T06:14:40;23.30;99.90
22436;DHT22;11385;50.822;4.324;2022-08-04T06:17:10;23.40;99.90
22436;DHT22;11385;50.822;4.324;2022-08-04T06:19:39;23.40;99.90
22436;DHT22;11385;50.822;4.324;2022-08-04T06:22:08;23.10;99.90
22436;DHT22;11385;50.822;4.324;2022-08-04T06:24:37;23.00;99.90
22436;DHT22;11385;50.822;4.324;2022-08-04T06:27:04;23.10;99.90
22436;DHT22;11385;50.822;4.324;2022-08-04T06:29:32;23.00;99.90
22436;DHT22;11385;50.822;4.324;2022-08-04T06:32:04;23.20;99.90
22436;DHT22;11385;50.822;4.324;2022-08-04T06:34:37;23.30;99.90
22436;DHT22;11385;50.822;4.324;2022-08-04T06:37:06;23.40;99.90
22436;DHT22;11385;50.822;4.324;2022-08-04T06:39:34;23.60;99.90
22436;DHT22;11385;50.822;4.324;2022-08-04T06:42:02;23.50;99.90
22436;DHT22;11385;50.822;4.324;2022-08-04T06:44:29;23.60;99.90
22436;DHT22;11385;50.822;4.324;2022-08-04T06:46:57;23.70;99.90
22436;DHT22;11385;50.822;4.324;2022-08-04T06:49:24;23.80;99.90
22436;DHT22;11385;50.822;4.324;2022-08-04T06:51:53;23.80;99.90
22436;DHT22;11385;50.822;4.324;2022-08-04T06:54:21;23.90;99.90
22436;DHT22;11385;50.822;4.324;2022-08-04T06:56:48;24.20;99.90
22436;DHT22;11385;50.822;4.324;2022-08-04T06:59:17;24.10;99.90
22436;DHT22;11385;50.822;4.324;2022-08-04T07:01:46;24.50;99.90
22436;DHT22;11385;50.822;4.324;2022-08-04T07:04:13;24.80;99.90
22436;DHT22;11385;50.822;4.324;2022-08-04T07:06:40;24.90;99.90
22436;DHT22;11385;50.822;4.324;2022-08-04T07:09:07;24.50;99.90
22436;DHT22;11385;50.822;4.324;2022-08-04T07:11:35;24.60;99.90
22436;DHT22;11385;50.822;4.324;2022-08-04T07:14:02;24.50;99.90
22436;DHT22;11385;50.822;4.324;2022-08-04T07:16:30;24.60;99.90
22436;DHT22;11385;50.822;4.324;2022-08-04T07:18:57;24.90;99.90
22436;DHT22;11385;50.822;4.324;2022-08-04T07:21:24;24.80;99.90
22436;DHT22;11385;50.822;4.324;2022-08-04T07:23:52;25.20;99.90
22436;DHT22;11385;50.822;4.324;2022-08-04T07:26:19;25.30;99.90
22436;DHT22;11385;50.822;4.324;2022-08-04T07:28:48;25.30;99.90
22436;DHT22;11385;50.822;4.324;2022-08-04T07:31:16;25.10;99.90
22436;DHT22;11385;50.822;4.324;2022-08-04T07:33:45;25.10;99.90
22436;DHT22;11385;50.822;4.324;2022-08-04T07:36:13;24.90;99.90
22436;DHT22;11385;50.822;4.324;2022-08-04T07:38:41;25.20;99.90
22436;DHT22;11385;50.822;4.324;2022-08-04T07:41:09;25.60;99.90
22436;DHT22;11385;50.822;4.324;2022-08-04T07:43:36;25.60;99.90
22436;DHT22;11385;50.822;4.324;2022-08-04T07:46:03;25.60;99.90
22436;DHT22;11385;50.822;4.324;2022-08-04T07:48:30;25.50;99.90
22436;DHT22;11385;50.822;4.324;2022-08-04T07:50:57;25.20;99.90
22436;DHT22;11385;50.822;4.324;2022-08-04T07:53:25;25.00;99.90
22436;DHT22;11385;50.822;4.324;2022-08-04T07:55:52;24.60;99.90
22436;DHT22;11385;50.822;4.324;2022-08-04T07:58:19;24.50;99.90
22436;DHT22;11385;50.822;4.324;2022-08-04T08:00:46;24.80;99.90
22436;DHT22;11385;50.822;4.324;2022-08-04T08:03:14;25.00;99.90
22436;DHT22;11385;50.822;4.324;2022-08-04T08:05:42;24.90;99.90
22436;DHT22;11385;50.822;4.324;2022-08-04T08:08:09;24.80;99.90
22436;DHT22;11385;50.822;4.324;2022-08-04T08:10:37;24.50;99.90
22436;DHT22;11385;50.822;4.324;2022-08-04T08:13:04;24.30;99.90
22436;DHT22;11385;50.822;4.324;2022-08-04T08:15:32;24.10;99.90
22436;DHT22;11385;50.822;4.324;2022-08-04T08:17:59;24.10;99.90
22436;DHT22;11385;50.822;4.324;2022-08-04T08:20:28;24.10;99.90
22436;DHT22;11385;50.822;4.324;2022-08-04T08:22:55;23.80;99.90
22436;DHT22;11385;50.822;4.324;2022-08-04T08:25:22;23.50;99.90
22436;DHT22;11385;50.822;4.324;2022-08-04T08:27:48;23.40;99.90
22436;DHT22;11385;50.822;4.324;2022-08-04T08:30:15;23.50;99.90
22436;DHT22;11385;50.822;4.324;2022-08-04T08:32:42;23.60;99.90
22436;DHT22;11385;50.822;4.324;2022-08-04T08:35:08;23.80;99.90
22436;DHT22;11385;50.822;4.324;2022-08-04T08:37:44;24.10;99.90
22436;DHT22;11385;50.822;4.324;2022-08-04T08:40:18;24.00;99.90
22436;DHT22;11385;50.822;4.324;2022-08-04T08:42:53;24.20;99.90
22436;DHT22;11385;50.822;4.324;2022-08-04T08:45:33;24.30;99.90
22436;DHT22;11385;50.822;4.324;2022-08-04T08:48:19;24.10;99.90
22436;DHT22;11385;50.822;4.324;2022-08-04T08:54:05;24.10;99.90
22436;DHT22;11385;50.822;4.324;2022-08-04T08:56:32;23.70;99.90
22436;DHT22;11385;50.822;4.324;2022-08-04T08:59:26;23.80;99.90
22436;DHT22;11385;50.822;4.324;2022-08-04T09:04:47;23.10;99.90
22436;DHT22;11385;50.822;4.324;2022-08-04T09:10:27;23.80;99.90
22436;DHT22;11385;50.822;4.324;2022-08-04T09:12:54;24.10;99.90
22436;DHT22;11385;50.822;4.324;2022-08-04T09:15:26;23.60;99.90
22436;DHT22;11385;50.822;4.324;2022-08-04T09:17:58;23.30;99.90
22436;DHT22;11385;50.822;4.324;2022-08-04T09:20:44;23.00;99.90
22436;DHT22;11385;50.822;4.324;2022-08-04T09:26:00;22.90;99.90
22436;DHT22;11385;50.822;4.324;2022-08-04T09:28:30;23.20;99.90
22436;DHT22;11385;50.822;4.324;2022-08-04T09:31:10;23.30;99.90
22436;DHT22;11385;50.822;4.324;2022-08-04T09:33:49;23.50;99.90
22436;DHT22;11385;50.822;4.324;2022-08-04T09:36:33;23.60;99.90
22436;DHT22;11385;50.822;4.324;2022-08-04T09:39:05;23.30;99.90
22436;DHT22;11385;50.822;4.324;2022-08-04T09:41:40;23.10;99.90
22436;DHT22;11385;50.822;4.324;2022-08-04T09:44:33;23.00;99.90
22436;DHT22;11385;50.822;4.324;2022-08-04T09:47:09;22.80;99.90
22436;DHT22;11385;50.822;4.324;2022-08-04T09:49:54;22.70;99.90
22436;DHT22;11385;50.822;4.324;2022-08-04T09:52:27;22.90;99.90
22436;DHT22;11385;50.822;4.324;2022-08-04T09:55:04;23.10;99.90
22436;DHT22;11385;50.822;4.324;2022-08-04T09:57:40;23.40;99.90
22436;DHT22;11385;50.822;4.324;2022-08-04T10:00:10;24.10;99.90
22436;DHT22;11385;50.822;4.324;2022-08-04T10:02:47;24.50;99.90
22436;DHT22;11385;50.822;4.324;2022-08-04T10:05:19;24.90;99.90
22436;DHT22;11385;50.822;4.324;2022-08-04T10:07:56;25.00;99.90
22436;DHT22;11385;50.822;4.324;2022-08-04T10:10:31;25.30;99.90
22436;DHT22;11385;50.822;4.324;2022-08-04T10:13:07;25.20;99.90
22436;DHT22;11385;50.822;4.324;2022-08-04T10:15:39;24.70;99.90
22436;DHT22;11385;50.822;4.324;2022-08-04T10:18:14;24.50;99.90
22436;DHT22;11385;50.822;4.324;2022-08-04T10:20:47;24.50;99.90
22436;DHT22;11385;50.822;4.324;2022-08-04T10:23:32;24.20;99.90
22436;DHT22;11385;50.822;4.324;2022-08-04T10:28:48;24.30;99.90
22436;DHT22;11385;50.822;4.324;2022-08-04T10:31:19;24.70;99.90
22436;DHT22;11385;50.822;4.324;2022-08-04T10:33:51;24.70;99.90
22436;DHT22;11385;50.822;4.324;2022-08-04T10:36:21;25.00;99.90
22436;DHT22;11385;50.822;4.324;2022-08-04T10:38:56;25.10;99.90
22436;DHT22;11385;50.822;4.324;2022-08-04T10:41:29;25.20;99.90
22436;DHT22;11385;50.822;4.324;2022-08-04T10:44:00;25.30;99.90
22436;DHT22;11385;50.822;4.324;2022-08-04T10:46:29;25.10;99.90
22436;DHT22;11385;50.822;4.324;2022-08-04T10:48:58;25.50;99.90
22436;DHT22;11385;50.822;4.324;2022-08-04T10:51:41;25.80;99.90
22436;DHT22;11385;50.822;4.324;2022-08-04T10:54:14;25.70;99.90
22436;DHT22;11385;50.822;4.324;2022-08-04T10:56:49;25.60;99.90
22436;DHT22;11385;50.822;4.324;2022-08-04T10:59:23;26.20;99.90
22436;DHT22;11385;50.822;4.324;2022-08-04T11:01:51;26.70;99.90
22436;DHT22;11385;50.822;4.324;2022-08-04T11:04:30;26.60;99.90
22436;DHT22;11385;50.822;4.324;2022-08-04T11:06:57;27.00;99.90
22436;DHT22;11385;50.822;4.324;2022-08-04T11:09:25;27.20;99.90
22436;DHT22;11385;50.822;4.324;2022-08-04T11:11:55;27.50;99.90
22436;DHT22;11385;50.822;4.324;2022-08-04T11:14:28;27.80;99.90
22436;DHT22;11385;50.822;4.324;2022-08-04T11:17:14;27.80;99.90
22436;DHT22;11385;50.822;4.324;2022-08-04T11:19:48;27.70;99.90
22436;DHT22;11385;50.822;4.324;2022-08-04T11:22:28;26.80;99.90
22436;DHT22;11385;50.822;4.324;2022-08-04T11:25:07;26.80;99.90
22436;DHT22;11385;50.822;4.324;2022-08-04T11:30:30;26.20;99.90
22436;DHT22;11385;50.822;4.324;2022-08-04T11:33:02;25.80;99.90
22436;DHT22;11385;50.822;4.324;2022-08-04T11:40:53;25.50;99.90
22436;DHT22;11385;50.822;4.324;2022-08-04T11:43:25;25.70;99.90
22436;DHT22;11385;50.822;4.324;2022-08-04T11:46:11;26.10;99.90
22436;DHT22;11385;50.822;4.324;2022-08-04T11:48:46;26.60;99.90
22436;DHT22;11385;50.822;4.324;2022-08-04T11:51:12;26.10;99.90
22436;DHT22;11385;50.822;4.324;2022-08-04T11:53:41;26.40;99.90
22436;DHT22;11385;50.822;4.324;2022-08-04T11:56:11;26.10;99.90
22436;DHT22;11385;50.822;4.324;2022-08-04T11:58:40;26.10;99.90
22436;DHT22;11385;50.822;4.324;2022-08-04T12:01:34;26.60;99.90
22436;DHT22;11385;50.822;4.324;2022-08-04T12:07:19;27.20;99.90
22436;DHT22;11385;50.822;4.324;2022-08-04T12:12:28;27.20;99.90
22436;DHT22;11385;50.822;4.324;2022-08-04T12:15:34;27.50;99.90
22436;DHT22;11385;50.822;4.324;2022-08-04T12:17:53;27.60;99.90
22436;DHT22;11385;50.822;4.324;2022-08-04T12:20:20;27.50;99.90
22436;DHT22;11385;50.822;4.324;2022-08-04T12:22:50;27.50;99.90
22436;DHT22;11385;50.822;4.324;2022-08-04T12:25:25;27.60;99.90
22436;DHT22;11385;50.822;4.324;2022-08-04T12:27:59;27.20;99.90
22436;DHT22;11385;50.822;4.324;2022-08-04T12:30:29;27.30;99.90
22436;DHT22;11385;50.822;4.324;2022-08-04T12:33:17;27.60;99.90
22436;DHT22;11385;50.822;4.324;2022-08-04T12:35:46;27.80;99.90
22436;DHT22;11385;50.822;4.324;2022-08-04T12:38:17;27.70;99.90
22436;DHT22;11385;50.822;4.324;2022-08-04T12:40:48;27.70;99.90
22436;DHT22;11385;50.822;4.324;2022-08-04T12:43:36;27.70;99.90
22436;DHT22;11385;50.822;4.324;2022-08-04T12:46:08;28.00;99.90
22436;DHT22;11385;50.822;4.324;2022-08-04T12:48:37;28.10;99.90
22436;DHT22;11385;50.822;4.324;2022-08-04T12:51:07;28.00;99.90
22436;DHT22;11385;50.822;4.324;2022-08-04T12:53:38;28.20;99.90
22436;DHT22;11385;50.822;4.324;2022-08-04T12:56:07;28.50;99.90
22436;DHT22;11385;50.822;4.324;2022-08-04T12:58:39;28.80;99.90
22436;DHT22;11385;50.822;4.324;2022-08-04T13:01:16;29.10;99.90
22436;DHT22;11385;50.822;4.324;2022-08-04T13:03:54;29.00;99.90
22436;DHT22;11385;50.822;4.324;2022-08-04T13:06:24;29.20;99.90
22436;DHT22;11385;50.822;4.324;2022-08-04T13:08:52;29.30;99.90
22436;DHT22;11385;50.822;4.324;2022-08-04T13:11:21;28.80;99.90
22436;DHT22;11385;50.822;4.324;2022-08-04T13:13:53;29.10;99.90
22436;DHT22;11385;50.822;4.324;2022-08-04T13:18:53;28.80;99.90
22436;DHT22;11385;50.822;4.324;2022-08-04T13:21:22;28.50;99.90
22436;DHT22;11385;50.822;4.324;2022-08-04T13:23:52;29.00;99.90
22436;DHT22;11385;50.822;4.324;2022-08-04T13:26:21;29.20;99.90
22436;DHT22;11385;50.822;4.324;2022-08-04T13:28:51;29.60;99.90
22436;DHT22;11385;50.822;4.324;2022-08-04T13:31:21;30.00;99.90
22436;DHT22;11385;50.822;4.324;2022-08-04T13:33:51;30.00;99.90
22436;DHT22;11385;50.822;4.324;2022-08-04T13:36:22;29.80;99.90
22436;DHT22;11385;50.822;4.324;2022-08-04T13:38:52;29.60;99.90
22436;DHT22;11385;50.822;4.324;2022-08-04T13:41:19;29.70;99.90
22436;DHT22;11385;50.822;4.324;2022-08-04T13:43:48;29.90;99.90
22436;DHT22;11385;50.822;4.324;2022-08-04T13:46:21;29.90;99.90
22436;DHT22;11385;50.822;4.324;2022-08-04T13:48:49;29.20;99.90
22436;DHT22;11385;50.822;4.324;2022-08-04T13:51:19;29.10;99.90
22436;DHT22;11385;50.822;4.324;2022-08-04T13:53:54;28.80;99.90
22436;DHT22;11385;50.822;4.324;2022-08-04T13:56:22;28.80;99.90
22436;DHT22;11385;50.822;4.324;2022-08-04T13:58:54;28.90;99.90
22436;DHT22;11385;50.822;4.324;2022-08-04T14:01:23;28.80;99.90
22436;DHT22;11385;50.822;4.324;2022-08-04T14:03:56;28.60;99.90
22436;DHT22;11385;50.822;4.324;2022-08-04T14:06:35;28.90;99.90
22436;DHT22;11385;50.822;4.324;2022-08-04T14:09:17;29.40;99.90
22436;DHT22;11385;50.822;4.324;2022-08-04T14:11:49;29.70;99.90
22436;DHT22;11385;50.822;4.324;2022-08-04T14:14:26;29.40;99.90
22436;DHT22;11385;50.822;4.324;2022-08-04T14:17:11;29.20;99.90
22436;DHT22;11385;50.822;4.324;2022-08-04T14:19:47;28.80;99.90
22436;DHT22;11385;50.822;4.324;2022-08-04T14:22:28;29.10;99.90
22436;DHT22;11385;50.822;4.324;2022-08-04T14:25:03;29.40;99.90
22436;DHT22;11385;50.822;4.324;2022-08-04T14:30:19;29.80;99.90
22436;DHT22;11385;50.822;4.324;2022-08-04T14:32:45;29.80;99.90
22436;DHT22;11385;50.822;4.324;2022-08-04T14:35:10;30.10;99.90
22436;DHT22;11385;50.822;4.324;2022-08-04T14:37:37;30.10;99.90
22436;DHT22;11385;50.822;4.324;2022-08-04T14:40:04;30.00;99.90
22436;DHT22;11385;50.822;4.324;2022-08-04T14:42:46;29.90;99.90
22436;DHT22;11385;50.822;4.324;2022-08-04T14:45:13;30.00;99.90
22436;DHT22;11385;50.822;4.324;2022-08-04T14:47:45;30.20;99.90
22436;DHT22;11385;50.822;4.324;2022-08-04T14:50:13;30.30;99.90
22436;DHT22;11385;50.822;4.324;2022-08-04T14:52:40;30.50;99.90
22436;DHT22;11385;50.822;4.324;2022-08-04T14:55:15;30.70;99.90
22436;DHT22;11385;50.822;4.324;2022-08-04T14:57:42;30.30;99.90
22436;DHT22;11385;50.822;4.324;2022-08-04T15:00:10;30.10;99.90
22436;DHT22;11385;50.822;4.324;2022-08-04T15:02:38;30.00;99.90
22436;DHT22;11385;50.822;4.324;2022-08-04T15:05:08;29.80;99.90
22436;DHT22;11385;50.822;4.324;2022-08-04T15:07:35;29.60;99.90
22436;DHT22;11385;50.822;4.324;2022-08-04T15:10:02;29.80;99.90
22436;DHT22;11385;50.822;4.324;2022-08-04T15:12:29;30.00;99.90
22436;DHT22;11385;50.822;4.324;2022-08-04T15:14:56;30.10;99.90
22436;DHT22;11385;50.822;4.324;2022-08-04T15:17:22;29.80;99.90
22436;DHT22;11385;50.822;4.324;2022-08-04T15:19:50;30.10;99.90
22436;DHT22;11385;50.822;4.324;2022-08-04T15:22:17;30.00;99.90
22436;DHT22;11385;50.822;4.324;2022-08-04T15:24:43;29.90;99.90
22436;DHT22;11385;50.822;4.324;2022-08-04T15:27:11;29.90;99.90
22436;DHT22;11385;50.822;4.324;2022-08-04T15:29:43;30.00;99.90
22436;DHT22;11385;50.822;4.324;2022-08-04T15:32:14;30.00;99.90
22436;DHT22;11385;50.822;4.324;2022-08-04T15:34:44;30.20;99.90
22436;DHT22;11385;50.822;4.324;2022-08-04T15:37:15;30.50;99.90
22436;DHT22;11385;50.822;4.324;2022-08-04T15:39:47;30.80;99.90
22436;DHT22;11385;50.822;4.324;2022-08-04T15:42:35;30.80;99.90
22436;DHT22;11385;50.822;4.324;2022-08-04T15:47:39;30.60;99.90
22436;DHT22;11385;50.822;4.324;2022-08-04T15:50:08;30.50;99.90
22436;DHT22;11385;50.822;4.324;2022-08-04T15:53:00;30.50;99.90
22436;DHT22;11385;50.822;4.324;2022-08-04T15:55:33;30.10;99.90
22436;DHT22;11385;50.822;4.324;2022-08-04T15:58:06;30.60;99.90
22436;DHT22;11385;50.822;4.324;2022-08-04T16:03:41;31.30;99.90
22436;DHT22;11385;50.822;4.324;2022-08-04T16:06:39;31.50;99.90
22436;DHT22;11385;50.822;4.324;2022-08-04T16:09:03;31.40;99.90
22436;DHT22;11385;50.822;4.324;2022-08-04T16:11:37;31.10;99.90
22436;DHT22;11385;50.822;4.324;2022-08-04T16:14:07;30.80;99.90
22436;DHT22;11385;50.822;4.324;2022-08-04T16:16:52;31.00;99.90
22436;DHT22;11385;50.822;4.324;2022-08-04T16:19:34;30.90;99.90
22436;DHT22;11385;50.822;4.324;2022-08-04T16:22:02;30.50;99.90
22436;DHT22;11385;50.822;4.324;2022-08-04T16:24:35;29.90;99.90
22436;DHT22;11385;50.822;4.324;2022-08-04T16:27:06;29.90;99.90
22436;DHT22;11385;50.822;4.324;2022-08-04T16:29:48;29.90;99.90
22436;DHT22;11385;50.822;4.324;2022-08-04T16:32:19;30.10;99.90
22436;DHT22;11385;50.822;4.324;2022-08-04T16:34:55;30.20;99.90
22436;DHT22;11385;50.822;4.324;2022-08-04T16:37:35;29.80;99.90
22436;DHT22;11385;50.822;4.324;2022-08-04T16:42:43;30.00;99.90
22436;DHT22;11385;50.822;4.324;2022-08-04T16:45:11;30.00;99.90
22436;DHT22;11385;50.822;4.324;2022-08-04T16:48:02;30.00;99.90
22436;DHT22;11385;50.822;4.324;2022-08-04T16:50:32;30.10;99.90
22436;DHT22;11385;50.822;4.324;2022-08-04T16:53:02;30.20;99.90
22436;DHT22;11385;50.822;4.324;2022-08-04T16:55:31;30.20;99.90
22436;DHT22;11385;50.822;4.324;2022-08-04T16:57:58;30.90;99.90
22436;DHT22;11385;50.822;4.324;2022-08-04T17:00:29;31.50;99.90
22436;DHT22;11385;50.822;4.324;2022-08-04T17:02:56;32.60;99.90
22436;DHT22;11385;50.822;4.324;2022-08-04T17:05:25;32.90;99.90
22436;DHT22;11385;50.822;4.324;2022-08-04T17:07:55;33.00;99.90
22436;DHT22;11385;50.822;4.324;2022-08-04T17:10:32;32.70;99.90
22436;DHT22;11385;50.822;4.324;2022-08-04T17:12:59;32.10;99.90
22436;DHT22;11385;50.822;4.324;2022-08-04T17:15:27;32.60;99.90
22436;DHT22;11385;50.822;4.324;2022-08-04T17:20:38;31.50;99.90
22436;DHT22;11385;50.822;4.324;2022-08-04T17:26:03;30.40;99.90
22436;DHT22;11385;50.822;4.324;2022-08-04T17:28:29;29.80;99.90
22436;DHT22;11385;50.822;4.324;2022-08-04T17:30:58;29.10;99.90
22436;DHT22;11385;50.822;4.324;2022-08-04T17:33:25;28.80;99.90
22436;DHT22;11385;50.822;4.324;2022-08-04T17:35:57;28.60;99.90
22436;DHT22;11385;50.822;4.324;2022-08-04T17:38:45;28.20;99.90